Time;durP1;ratioP1;P1;durP2;ratioP2;P2;SDS_P1;SDS_P2;PMS_P1;PMS_P2;Temp;Humidity;BMP_temperature;BMP_pressure;BME280_temperature;BME280_humidity;BME280_pressure;Samples;Min_cycle;Max_cycle;Signal;HPM_P1;HPM_P2
2023/10/09 00:03:06;;;;;;;9.77;7.00;;;17.30;1.00;;;;;;5055985;28;20471;-80
2023/10/09 00:08:22;;;;;;;13.67;6.90;;;17.30;1.00;;;;;;5056731;28;20420;-80
2023/10/09 00:10:54;;;;;;;9.57;5.27;;;17.30;1.00;;;;;;5039232;28;20432;-80
2023/10/09 00:13:31;;;;;;;7.57;6.50;;;17.30;1.00;;;;;;5040167;28;20491;-80
2023/10/09 00:16:08;;;;;;;10.83;6.57;;;17.30;1.00;;;;;;5059375;28;20471;-79
2023/10/09 00:18:34;;;;;;;11.60;6.20;;;17.20;1.00;;;;;;5059980;28;20572;-80
2023/10/09 00:21:12;;;;;;;11.70;6.63;;;17.20;1.00;;;;;;5060061;28;20495;-81
2023/10/09 00:23:42;;;;;;;11.93;6.80;;;17.10;1.00;;;;;;5059773;28;20482;-80
2023/10/09 00:26:12;;;;;;;10.50;7.10;;;17.10;1.00;;;;;;5047852;28;20776;-80
2023/10/09 00:28:50;;;;;;;11.93;6.97;;;17.00;1.00;;;;;;5057705;28;20459;-79
2023/10/09 00:31:33;;;;;;;8.50;6.30;;;17.00;1.00;;;;;;5042322;28;20424;-80
2023/10/09 00:34:18;;;;;;;11.60;7.00;;;17.00;1.00;;;;;;5059382;28;20578;-81
2023/10/09 00:36:50;;;;;;;12.23;7.37;;;16.90;1.00;;;;;;5042068;28;20491;-81
2023/10/09 00:39:23;;;;;;;13.37;8.23;;;16.80;16.80;;;;;;5041743;28;20502;-78
2023/10/09 00:41:48;;;;;;;10.70;7.30;;;16.80;28.40;;;;;;5042356;28;20420;-80
2023/10/09 00:44:14;;;;;;;16.03;7.07;;;16.80;59.60;;;;;;5056647;28;20436;-81
2023/10/09 00:46:43;;;;;;;11.30;6.87;;;16.70;99.90;;;;;;5059768;28;20265;-80
2023/10/09 00:49:10;;;;;;;15.30;7.17;;;16.70;99.90;;;;;;5059802;28;20528;-80
2023/10/09 00:51:42;;;;;;;12.77;7.53;;;16.70;99.90;;;;;;5059907;28;20415;-80
2023/10/09 00:54:14;;;;;;;11.63;7.30;;;16.60;99.90;;;;;;5059316;28;20490;-80
2023/10/09 00:56:44;;;;;;;8.80;6.73;;;16.60;99.90;;;;;;5059394;28;20463;-80
2023/10/09 00:59:19;;;;;;;10.07;7.10;;;16.60;99.90;;;;;;5059164;28;20440;-80
2023/10/09 01:01:56;;;;;;;9.70;7.47;;;16.60;99.90;;;;;;5041666;28;20440;-80
2023/10/09 01:04:26;;;;;;;10.60;6.67;;;16.60;99.90;;;;;;5055708;28;20485;-80
2023/10/09 01:07:06;;;;;;;9.30;7.17;;;16.70;99.90;;;;;;5041059;28;20428;-80
2023/10/09 01:09:37;;;;;;;14.07;6.80;;;16.70;99.90;;;;;;5057800;28;20417;-80
2023/10/09 01:12:03;;;;;;;12.23;7.17;;;16.80;99.90;;;;;;5060026;28;20839;-79
2023/10/09 01:14:41;;;;;;;10.80;7.13;;;16.80;99.90;;;;;;5061898;28;20466;-78
2023/10/09 01:17:09;;;;;;;10.57;6.67;;;16.80;99.90;;;;;;5059360;28;20205;-79
2023/10/09 01:19:35;;;;;;;10.77;7.10;;;16.80;99.90;;;;;;5052408;28;20919;-80
2023/10/09 01:22:13;;;;;;;9.73;7.03;;;16.80;99.90;;;;;;5050027;28;20437;-79
2023/10/09 01:24:41;;;;;;;10.70;6.93;;;16.90;99.90;;;;;;5052189;28;20449;-79
2023/10/09 01:27:14;;;;;;;9.73;6.80;;;16.90;99.90;;;;;;5054775;28;20995;-79
2023/10/09 01:29:41;;;;;;;9.70;7.10;;;16.90;99.90;;;;;;5056672;28;20452;-78
2023/10/09 01:32:16;;;;;;;9.20;6.40;;;17.00;99.90;;;;;;5056784;28;20421;-79
2023/10/09 01:34:42;;;;;;;11.73;6.40;;;17.00;99.90;;;;;;5038538;28;20844;-80
2023/10/09 01:37:28;;;;;;;11.03;7.20;;;17.00;99.90;;;;;;5056043;28;20463;-80
2023/10/09 01:39:59;;;;;;;11.90;6.50;;;17.00;99.90;;;;;;5054538;28;20192;-79
2023/10/09 01:42:34;;;;;;;9.17;6.50;;;17.10;99.90;;;;;;5056037;28;20419;-79
2023/10/09 01:45:26;;;;;;;10.77;6.67;;;17.10;99.90;;;;;;5055616;28;20442;-79
2023/10/09 01:47:51;;;;;;;11.57;6.43;;;17.10;99.90;;;;;;5050215;28;20850;-79
2023/10/09 01:50:27;;;;;;;9.30;6.90;;;17.10;99.90;;;;;;5037176;28;20416;-78
2023/10/09 01:52:52;;;;;;;10.90;7.17;;;17.10;99.90;;;;;;5055401;28;20181;-79
2023/10/09 01:58:23;;;;;;;8.80;6.27;;;17.10;99.90;;;;;;5053892;28;20228;-79
2023/10/09 02:00:54;;;;;;;10.40;6.00;;;17.10;99.90;;;;;;5037297;28;20447;-79
2023/10/09 02:03:24;;;;;;;12.37;6.90;;;17.20;99.90;;;;;;5054934;28;20440;-79
2023/10/09 02:05:51;;;;;;;9.97;5.73;;;17.20;99.90;;;;;;5037343;28;20416;-79
2023/10/09 02:08:21;;;;;;;10.27;6.40;;;17.20;99.90;;;;;;5054473;28;20424;-79
2023/10/09 02:10:48;;;;;;;11.97;7.07;;;17.20;99.90;;;;;;5055465;28;20520;-79
2023/10/09 02:13:17;;;;;;;10.30;6.23;;;17.20;99.90;;;;;;5054691;28;20474;-79
2023/10/09 02:26:17;;;;;;;10.20;6.77;;;17.20;99.90;;;;;;5053960;28;20464;-79
2023/10/09 02:28:43;;;;;;;13.73;6.50;;;17.20;99.90;;;;;;5054171;28;20507;-79
2023/10/09 02:31:11;;;;;;;11.00;6.70;;;17.20;99.90;;;;;;5055006;28;20840;-79
2023/10/09 02:33:39;;;;;;;10.00;7.10;;;17.30;99.90;;;;;;5045938;28;20991;-80
2023/10/09 02:36:07;;;;;;;10.10;6.83;;;17.30;99.90;;;;;;5054668;28;20452;-79
2023/10/09 02:38:35;;;;;;;11.37;7.17;;;17.30;99.90;;;;;;5056282;28;20400;-80
2023/10/09 02:43:44;;;;;;;10.80;7.10;;;17.30;99.90;;;;;;5056954;28;20455;-80
2023/10/09 02:46:17;;;;;;;12.33;7.80;;;17.30;99.90;;;;;;5049040;28;20442;-80
2023/10/09 02:48:50;;;;;;;13.10;8.43;;;17.30;99.90;;;;;;5057936;28;20416;-80
2023/10/09 02:51:31;;;;;;;10.77;7.30;;;17.30;99.90;;;;;;5054921;28;20440;-80
2023/10/09 02:54:06;;;;;;;12.87;7.47;;;17.30;99.90;;;;;;5057432;28;20962;-80
2023/10/09 02:56:47;;;;;;;16.23;8.63;;;17.30;99.90;;;;;;5047235;28;20512;-80
2023/10/09 02:59:12;;;;;;;8.53;7.10;;;17.30;99.90;;;;;;5057296;28;20587;-79
2023/10/09 03:01:40;;;;;;;12.60;7.60;;;17.30;99.90;;;;;;5056959;28;20472;-79
2023/10/09 03:04:05;;;;;;;12.13;7.67;;;17.40;99.90;;;;;;5038690;28;20209;-80
2023/10/09 03:06:34;;;;;;;12.03;7.00;;;17.40;99.90;;;;;;5057232;28;20499;-81
2023/10/09 03:09:00;;;;;;;12.43;7.83;;;17.40;99.90;;;;;;5055496;28;20239;-81
2023/10/09 03:11:26;;;;;;;12.50;7.60;;;17.40;99.90;;;;;;5054108;28;20515;-80
2023/10/09 03:13:52;;;;;;;10.47;8.60;;;17.30;99.90;;;;;;5051053;28;20464;-80
2023/10/09 03:16:21;;;;;;;11.03;8.47;;;17.40;99.90;;;;;;5056814;28;20891;-80
2023/10/09 03:18:52;;;;;;;11.50;6.83;;;17.40;99.90;;;;;;5056878;28;20419;-80
2023/10/09 03:21:19;;;;;;;9.93;7.70;;;17.40;99.90;;;;;;5056717;28;20490;-80
2023/10/09 03:23:49;;;;;;;12.60;7.37;;;17.40;99.90;;;;;;5042962;28;20456;-79
2023/10/09 03:26:17;;;;;;;14.93;8.13;;;17.40;99.90;;;;;;5056512;28;20530;-80
2023/10/09 03:28:44;;;;;;;12.87;8.00;;;17.40;92.50;;;;;;5056794;28;20412;-81
2023/10/09 03:31:10;;;;;;;11.73;8.43;;;17.40;71.90;;;;;;5056754;28;20869;-80
2023/10/09 03:33:36;;;;;;;14.00;8.70;;;17.40;49.20;;;;;;5057165;28;20452;-81
2023/10/09 03:36:02;;;;;;;14.13;8.50;;;17.40;16.40;;;;;;5056489;28;20471;-79
2023/10/09 03:38:34;;;;;;;10.03;7.53;;;17.40;5.20;;;;;;5038409;28;20236;-80
2023/10/09 03:41:06;;;;;;;15.70;8.10;;;17.30;3.50;;;;;;5057161;28;20508;-79
2023/10/09 03:43:38;;;;;;;12.67;8.50;;;17.40;1.00;;;;;;5036252;28;20503;-80
2023/10/09 03:46:05;;;;;;;15.73;8.47;;;17.40;1.00;;;;;;5056394;28;20424;-80
2023/10/09 03:48:35;;;;;;;12.30;8.07;;;17.40;1.00;;;;;;5056544;28;20428;-78
2023/10/09 03:51:12;;;;;;;15.20;7.80;;;17.40;1.00;;;;;;5056701;28;20415;-79
2023/10/09 03:53:42;;;;;;;11.40;8.30;;;17.40;1.00;;;;;;5056153;28;20483;-80
2023/10/09 03:56:11;;;;;;;13.00;8.00;;;17.30;1.00;;;;;;5055712;28;20868;-80
2023/10/09 03:58:42;;;;;;;16.77;8.00;;;17.30;1.00;;;;;;5057224;28;20448;-79
2023/10/09 04:01:16;;;;;;;11.00;7.40;;;17.40;1.00;;;;;;5057940;28;20519;-79
2023/10/09 04:03:43;;;;;;;11.40;7.43;;;17.30;1.00;;;;;;5052706;28;20458;-79
2023/10/09 04:06:10;;;;;;;12.10;6.97;;;17.30;1.00;;;;;;5057139;28;20424;-79
2023/10/09 04:08:39;;;;;;;13.57;7.97;;;17.30;1.00;;;;;;5054667;28;20876;-79
2023/10/09 04:11:16;;;;;;;11.50;8.40;;;17.30;1.00;;;;;;5055341;28;20532;-79
2023/10/09 04:13:45;;;;;;;12.70;8.57;;;17.30;1.00;;;;;;5046454;28;20475;-79
2023/10/09 04:19:11;;;;;;;12.50;6.97;;;17.30;1.00;;;;;;5030011;28;20413;-79
2023/10/09 04:21:37;;;;;;;10.97;7.80;;;17.30;1.00;;;;;;5054095;28;21013;-79
2023/10/09 04:26:44;;;;;;;11.30;7.50;;;17.30;1.00;;;;;;5054353;28;20926;-79
2023/10/09 04:29:28;;;;;;;17.00;8.07;;;17.30;1.00;;;;;;5054149;28;20420;-80
2023/10/09 04:31:56;;;;;;;11.57;8.33;;;17.30;1.00;;;;;;5046157;28;20853;-79
2023/10/09 04:37:00;;;;;;;13.27;8.43;;;17.30;1.00;;;;;;5054250;28;20460;-79
2023/10/09 04:42:19;;;;;;;16.73;9.27;;;17.30;1.00;;;;;;5054552;28;20425;-79
2023/10/09 04:45:18;;;;;;;19.00;10.07;;;17.30;1.00;;;;;;5054288;28;20443;-79
2023/10/09 04:47:37;;;;;;;15.17;9.17;;;17.30;1.00;;;;;;5051651;28;20845;-79
2023/10/09 05:02:56;;;;;;;16.90;8.60;;;17.30;1.00;;;;;;5056143;28;20421;-79
2023/10/09 05:08:20;;;;;;;11.70;9.10;;;17.30;1.00;;;;;;5051385;28;20942;-79
2023/10/09 05:16:33;;;;;;;9.73;7.70;;;17.20;1.00;;;;;;5056375;28;20464;-79
2023/10/09 05:19:08;;;;;;;16.70;8.67;;;17.20;1.00;;;;;;5056044;28;20420;-79
2023/10/09 05:29:34;;;;;;;12.07;8.80;;;17.10;1.00;;;;;;5059417;28;20511;-80
2023/10/09 05:35:05;;;;;;;15.67;9.00;;;17.10;1.00;;;;;;5058662;28;20819;-80
2023/10/09 05:37:26;;;;;;;11.83;7.93;;;17.10;1.00;;;;;;5058205;28;20917;-79
2023/10/09 06:11:38;;;;;;;15.23;8.40;;;17.30;99.90;;;;;;5058153;28;20424;-80
2023/10/09 06:16:59;;;;;;;13.33;8.00;;;17.30;99.90;;;;;;5057857;28;20468;-81
2023/10/09 06:24:54;;;;;;;13.37;8.83;;;17.40;1.00;;;;;;5057279;28;20459;-80
2023/10/09 06:27:43;;;;;;;10.00;7.87;;;17.40;1.00;;;;;;5040001;28;20841;-80
2023/10/09 06:33:04;;;;;;;13.57;8.60;;;17.50;99.90;;;;;;5056550;28;20481;-81
2023/10/09 06:35:35;;;;;;;20.33;8.83;;;17.60;99.90;;;;;;5039494;28;20905;-80
2023/10/09 06:43:17;;;;;;;17.37;8.00;;;17.70;1.00;;;;;;5057868;28;20231;-81
2023/10/09 06:45:45;;;;;;;10.23;7.97;;;17.80;1.00;;;;;;5055046;28;20440;-81
2023/10/09 06:48:55;;;;;;;16.33;8.37;;;17.80;1.00;;;;;;5057416;28;20425;-81
2023/10/09 06:57:12;;;;;;;14.30;8.40;;;17.90;99.90;;;;;;5057998;28;20471;-80
2023/10/09 06:59:21;;;;;;;11.80;8.40;;;18.00;1.00;;;;;;5052502;28;20427;-81
2023/10/09 07:02:25;;;;;;;16.27;9.83;;;18.00;1.00;;;;;;5054272;28;20941;-80
2023/10/09 07:07:07;;;;;;;15.27;9.67;;;18.10;99.90;;;;;;5055378;28;20425;-79
2023/10/09 07:09:42;;;;;;;13.03;9.63;;;18.20;1.00;;;;;;5056154;28;20188;-81
2023/10/09 07:12:14;;;;;;;13.07;9.23;;;18.30;99.90;;;;;;5054831;28;20428;-80
2023/10/09 07:17:15;;;;;;;13.70;9.23;;;18.50;99.90;;;;;;5054808;28;20475;-80
2023/10/09 07:27:44;;;;;;;13.00;10.17;;;18.40;1.00;;;;;;5055169;28;20424;-80
2023/10/09 07:38:22;;;;;;;15.07;9.57;;;18.30;99.90;;;;;;5055009;28;20424;-80
2023/10/09 07:40:55;;;;;;;13.13;9.00;;;18.30;48.80;;;;;;5054320;28;20428;-80
2023/10/09 07:46:32;;;;;;;18.10;10.30;;;18.40;99.90;;;;;;5054572;28;20922;-80
2023/10/09 07:49:08;;;;;;;13.90;9.90;;;18.30;99.90;;;;;;5056364;28;20423;-80
2023/10/09 07:51:37;;;;;;;14.40;10.17;;;18.50;1.00;;;;;;5041793;28;20793;-80
2023/10/09 07:54:09;;;;;;;16.00;10.17;;;18.40;1.00;;;;;;5058090;28;20800;-80
2023/10/09 07:56:41;;;;;;;12.97;9.87;;;18.50;1.00;;;;;;5052868;28;20583;-80
2023/10/09 07:59:12;;;;;;;14.30;9.80;;;18.50;1.00;;;;;;5048422;28;20503;-80
2023/10/09 08:02:02;;;;;;;16.80;9.50;;;18.50;1.00;;;;;;5054985;28;20428;-80
2023/10/09 08:04:37;;;;;;;13.20;9.13;;;18.60;1.00;;;;;;5055255;28;20524;-80
2023/10/09 08:07:25;;;;;;;14.03;9.13;;;18.60;99.90;;;;;;5047718;28;20420;-79
2023/10/09 08:17:53;;;;;;;17.40;9.77;;;19.20;1.00;;;;;;5056419;28;20926;-80
2023/10/09 08:20:25;;;;;;;15.13;9.23;;;19.40;99.90;;;;;;5038902;28;20417;-80
2023/10/09 08:22:55;;;;;;;16.23;9.00;;;19.60;58.30;;;;;;5056388;28;20424;-80
2023/10/09 08:25:35;;;;;;;14.97;9.80;;;19.60;1.00;;;;;;5042603;28;20423;-81
2023/10/09 08:30:49;;;;;;;14.33;9.20;;;19.60;1.00;;;;;;5056806;28;20911;-81
2023/10/09 08:33:40;;;;;;;13.63;9.37;;;19.50;1.00;;;;;;5041631;28;20442;-81
2023/10/09 08:36:07;;;;;;;22.57;9.40;;;19.50;1.00;;;;;;5042569;28;20467;-81
2023/10/09 08:38:34;;;;;;;15.33;8.97;;;19.50;1.00;;;;;;5060739;28;20427;-81
2023/10/09 08:41:15;;;;;;;10.90;8.00;;;19.70;1.00;;;;;;5060813;28;20424;-80
2023/10/09 08:43:52;;;;;;;18.73;9.40;;;19.90;99.90;;;;;;5056956;28;20472;-80
2023/10/09 08:46:28;;;;;;;14.63;9.20;;;20.10;99.90;;;;;;5041917;28;20480;-81
2023/10/09 08:48:58;;;;;;;21.60;10.90;;;20.30;99.90;;;;;;5059914;28;20914;-81
2023/10/09 08:51:25;;;;;;;15.90;9.10;;;20.50;99.90;;;;;;5060207;28;20428;-81
2023/10/09 08:53:52;;;;;;;15.17;9.50;;;20.70;50.10;;;;;;5041675;28;20448;-80
2023/10/09 08:56:21;;;;;;;15.03;9.10;;;20.80;8.00;;;;;;5059438;28;20464;-81
2023/10/09 08:58:55;;;;;;;14.60;9.70;;;20.80;1.00;;;;;;5059049;28;20811;-81
2023/10/09 09:01:21;;;;;;;15.83;9.80;;;20.70;1.00;;;;;;5057144;28;20519;-80
2023/10/09 09:03:48;;;;;;;13.00;9.40;;;20.70;1.00;;;;;;5041777;28;20432;-80
2023/10/09 09:06:14;;;;;;;15.83;9.30;;;20.70;1.00;;;;;;5059078;28;20409;-81
2023/10/09 09:08:40;;;;;;;16.90;10.13;;;20.70;1.00;;;;;;5041814;28;20473;-81
2023/10/09 09:11:22;;;;;;;14.27;8.87;;;20.90;1.00;;;;;;5060289;28;20440;-80
2023/10/09 09:14:30;;;;;;;15.57;9.37;;;21.20;1.00;;;;;;5041992;28;20436;-81
2023/10/09 09:16:55;;;;;;;15.77;9.03;;;21.40;1.00;;;;;;5059336;28;20468;-82
2023/10/09 09:19:31;;;;;;;17.53;8.43;;;21.60;1.00;;;;;;5056569;28;20467;-81
2023/10/09 09:22:11;;;;;;;11.67;8.40;;;21.80;1.00;;;;;;5059223;28;20424;-81
2023/10/09 09:24:37;;;;;;;17.07;8.60;;;21.90;1.00;;;;;;5059433;28;20443;-82
2023/10/09 09:27:12;;;;;;;13.90;8.50;;;22.30;1.00;;;;;;5042681;28;20420;-81
2023/10/09 09:29:41;;;;;;;16.03;8.57;;;22.70;1.00;;;;;;5041345;28;20412;-82
2023/10/09 09:32:20;;;;;;;15.40;9.30;;;23.60;99.90;;;;;;5059963;28;20421;-82
2023/10/09 09:35:04;;;;;;;12.47;8.67;;;24.20;99.90;;;;;;5057260;28;20810;-81
2023/10/09 09:37:38;;;;;;;12.27;8.60;;;24.30;99.90;;;;;;5067367;28;20409;-80
2023/10/09 09:40:15;;;;;;;11.97;9.00;;;24.20;99.90;;;;;;5044592;28;20440;-81
2023/10/09 09:42:48;;;;;;;17.27;9.60;;;23.90;99.90;;;;;;5060745;28;20486;-81
2023/10/09 09:45:14;;;;;;;13.67;8.50;;;23.80;99.90;;;;;;5041384;28;20455;-81
2023/10/09 09:47:51;;;;;;;12.30;9.00;;;24.10;99.90;;;;;;5059360;28;20424;-81
2023/10/09 09:50:28;;;;;;;18.50;8.70;;;24.30;99.90;;;;;;5059494;28;20408;-81
2023/10/09 09:52:54;;;;;;;18.37;9.30;;;24.50;99.90;;;;;;5022004;28;20444;-81
2023/10/09 09:55:22;;;;;;;12.10;8.10;;;24.60;99.90;;;;;;5055608;28;20456;-80
2023/10/09 09:57:51;;;;;;;14.90;8.40;;;25.00;99.90;;;;;;5037000;28;20707;-81
2023/10/09 10:00:30;;;;;;;12.37;7.70;;;25.50;99.90;;;;;;5036248;28;20425;-80
2023/10/09 10:03:22;;;;;;;13.80;8.73;;;25.50;99.90;;;;;;5054271;28;20416;-81
2023/10/09 10:05:50;;;;;;;16.10;7.63;;;25.60;99.90;;;;;;5038345;28;20436;-81
2023/10/09 10:08:21;;;;;;;17.60;8.73;;;25.40;99.90;;;;;;5055418;28;20533;-80
2023/10/09 10:10:49;;;;;;;14.10;7.93;;;25.20;99.90;;;;;;5053832;28;20444;-81
2023/10/09 10:13:23;;;;;;;10.93;7.57;;;25.10;99.90;;;;;;5055404;28;20452;-80
2023/10/09 10:15:58;;;;;;;11.03;8.63;;;24.90;99.90;;;;;;5038573;28;20474;-80
2023/10/09 10:18:24;;;;;;;12.97;7.67;;;24.70;99.90;;;;;;5039668;28;20447;-80
2023/10/09 10:21:15;;;;;;;11.83;7.67;;;24.60;99.90;;;;;;5057935;28;20443;-81
2023/10/09 10:23:41;;;;;;;12.03;7.93;;;24.50;99.90;;;;;;5056943;28;20440;-82
2023/10/09 10:26:26;;;;;;;15.13;8.37;;;24.40;99.90;;;;;;5056133;28;20436;-80
2023/10/09 10:29:23;;;;;;;12.83;8.70;;;24.30;99.90;;;;;;5053822;28;20447;-81
2023/10/09 10:32:08;;;;;;;12.70;7.07;;;24.00;99.90;;;;;;5038220;28;20417;-80
2023/10/09 10:34:55;;;;;;;12.20;7.33;;;24.00;99.90;;;;;;5055916;28;20456;-81
2023/10/09 10:37:28;;;;;;;13.03;6.87;;;24.00;99.90;;;;;;5056430;28;20501;-81
2023/10/09 10:39:59;;;;;;;10.80;7.60;;;24.10;99.90;;;;;;5038503;28;20420;-81
2023/10/09 10:42:34;;;;;;;10.63;6.50;;;24.20;99.90;;;;;;5038602;28;20413;-80
2023/10/09 10:45:31;;;;;;;10.57;7.00;;;24.20;99.90;;;;;;5035254;28;20448;-80
2023/10/09 10:47:49;;;;;;;17.03;7.10;;;24.20;99.90;;;;;;5055818;28;20460;-81
2023/10/09 10:53:16;;;;;;;9.77;6.60;;;24.40;99.90;;;;;;5055901;28;20182;-80
2023/10/09 10:56:17;;;;;;;11.83;6.93;;;24.30;99.90;;;;;;5055430;28;20467;-81
2023/10/09 11:01:50;;;;;;;12.80;8.30;;;24.60;99.90;;;;;;5054318;28;20443;-81
2023/10/09 11:07:16;;;;;;;14.23;7.93;;;25.00;99.90;;;;;;5056978;28;20929;-81
2023/10/09 11:12:42;;;;;;;11.37;7.80;;;25.10;99.90;;;;;;5057759;28;20420;-82
2023/10/09 11:28:57;;;;;;;13.00;7.40;;;25.20;99.90;;;;;;5057510;28;20442;-80
2023/10/09 11:31:23;;;;;;;14.33;8.57;;;25.40;99.90;;;;;;5039719;28;20507;-81
2023/10/09 11:33:53;;;;;;;14.43;8.53;;;25.40;99.90;;;;;;5054324;28;20494;-81
2023/10/09 11:36:32;;;;;;;11.40;8.30;;;25.40;99.90;;;;;;5039453;28;20465;-82
2023/10/09 11:39:16;;;;;;;14.90;7.83;;;25.50;99.90;;;;;;5057270;28;20507;-81
2023/10/09 11:41:42;;;;;;;13.23;8.80;;;25.50;99.90;;;;;;5057339;28;20440;-82
2023/10/09 11:44:33;;;;;;;14.40;9.13;;;25.40;99.90;;;;;;5056796;28;20432;-81
2023/10/09 11:52:35;;;;;;;12.17;9.07;;;25.30;99.90;;;;;;5057396;28;20510;-82
2023/10/09 11:55:02;;;;;;;13.40;10.47;;;25.50;99.90;;;;;;5056741;28;20429;-83
2023/10/09 11:57:31;;;;;;;17.80;10.27;;;25.70;99.90;;;;;;5039011;28;20537;-83
2023/10/09 12:00:00;;;;;;;13.53;8.70;;;25.80;99.90;;;;;;5056972;28;20504;-81
2023/10/09 12:02:26;;;;;;;16.23;10.23;;;25.90;99.90;;;;;;5056898;28;20436;-81
2023/10/09 12:04:55;;;;;;;11.80;8.43;;;25.80;99.90;;;;;;5058831;28;20436;-82
2023/10/09 12:07:22;;;;;;;16.27;7.77;;;25.80;99.90;;;;;;5056296;28;20203;-81
2023/10/09 12:09:48;;;;;;;9.90;7.77;;;25.80;99.90;;;;;;5060068;28;20458;-82
2023/10/09 12:12:14;;;;;;;13.63;7.60;;;25.90;99.90;;;;;;5061831;28;20428;-82
2023/10/09 12:14:39;;;;;;;10.67;7.70;;;25.90;99.90;;;;;;5044880;28;20443;-81
2023/10/09 12:17:06;;;;;;;11.17;8.20;;;26.00;99.90;;;;;;5061914;28;20742;-82
2023/10/09 12:19:34;;;;;;;13.93;8.80;;;26.10;99.90;;;;;;5043822;28;20181;-82
2023/10/09 12:22:01;;;;;;;13.00;7.40;;;26.20;99.90;;;;;;5059039;28;20431;-82
2023/10/09 12:24:29;;;;;;;10.50;7.20;;;26.30;99.90;;;;;;5064204;28;20459;-81
2023/10/09 12:26:55;;;;;;;14.03;7.80;;;26.30;99.90;;;;;;5070601;28;20423;-80
2023/10/09 12:29:20;;;;;;;8.83;6.30;;;26.20;99.90;;;;;;5064198;28;20421;-77
2023/10/09 12:31:46;;;;;;;9.63;7.03;;;26.20;99.90;;;;;;5055305;28;20435;-78
2023/10/09 12:34:16;;;;;;;11.90;6.77;;;26.00;99.90;;;;;;5054396;28;20198;-79
2023/10/09 12:36:51;;;;;;;12.53;7.33;;;26.00;99.90;;;;;;5054933;28;20723;-79
2023/10/09 12:39:19;;;;;;;9.57;6.70;;;25.90;99.90;;;;;;5035596;28;20423;-81
2023/10/09 12:41:45;;;;;;;7.20;6.10;;;25.90;99.90;;;;;;5044832;28;20429;-80
2023/10/09 12:44:14;;;;;;;11.80;7.50;;;25.80;99.90;;;;;;5057087;28;20474;-80
2023/10/09 12:46:41;;;;;;;10.10;7.03;;;25.70;99.90;;;;;;5039138;28;20178;-81
2023/10/09 12:49:07;;;;;;;11.73;5.80;;;25.70;99.90;;;;;;5038723;28;20437;-82
2023/10/09 12:51:32;;;;;;;10.53;6.90;;;25.70;99.90;;;;;;5056819;28;20435;-81
2023/10/09 12:54:01;;;;;;;11.60;7.07;;;25.60;99.90;;;;;;5038745;28;20460;-80
2023/10/09 12:56:37;;;;;;;14.60;7.10;;;25.60;99.90;;;;;;5056093;28;20201;-80
2023/10/09 12:59:04;;;;;;;8.30;6.13;;;25.50;99.90;;;;;;5034544;28;20463;-80
2023/10/09 13:01:42;;;;;;;9.50;6.70;;;25.30;99.90;;;;;;5053162;28;20401;-80
2023/10/09 13:04:17;;;;;;;9.40;7.27;;;25.20;99.90;;;;;;5056040;28;20478;-80
2023/10/09 13:06:44;;;;;;;12.30;7.77;;;25.10;99.90;;;;;;5055033;28;20416;-80
2023/10/09 13:09:32;;;;;;;10.47;6.53;;;25.00;99.90;;;;;;5056094;28;20420;-80
2023/10/09 13:12:00;;;;;;;9.47;6.73;;;24.90;99.90;;;;;;5055574;28;20417;-80
2023/10/09 13:14:26;;;;;;;9.80;6.77;;;24.80;99.90;;;;;;5055642;28;20863;-80
2023/10/09 13:16:52;;;;;;;11.17;8.00;;;24.80;99.90;;;;;;5056882;28;20475;-80
2023/10/09 13:19:18;;;;;;;9.77;6.63;;;24.70;99.90;;;;;;5053086;28;20432;-80
2023/10/09 13:21:44;;;;;;;12.50;7.60;;;24.70;99.90;;;;;;5054871;28;20455;-81
2023/10/09 13:24:12;;;;;;;8.80;7.00;;;24.70;99.90;;;;;;5057053;28;20432;-81
2023/10/09 13:26:45;;;;;;;15.70;7.63;;;24.70;99.90;;;;;;5050528;28;20180;-80
2023/10/09 13:29:11;;;;;;;30.50;27.20;;;24.70;99.90;;;;;;5039498;28;20427;-80
2023/10/09 13:31:37;;;;;;;12.60;7.60;;;24.80;99.90;;;;;;5057881;28;20826;-80
2023/10/09 13:34:10;;;;;;;15.10;7.80;;;24.90;99.90;;;;;;5057727;28;20437;-80
2023/10/09 13:36:37;;;;;;;12.00;8.33;;;24.90;99.90;;;;;;5058044;28;20471;-80
2023/10/09 13:39:24;;;;;;;13.23;7.97;;;24.80;99.90;;;;;;5055364;28;20825;-80
2023/10/09 13:42:07;;;;;;;16.00;7.47;;;24.80;99.90;;;;;;5039617;28;20840;-81
2023/10/09 13:44:33;;;;;;;12.33;8.03;;;24.80;99.90;;;;;;5057636;28;20467;-81
2023/10/09 13:47:02;;;;;;;15.30;7.77;;;24.80;99.90;;;;;;5057216;28;20484;-80
2023/10/09 13:49:31;;;;;;;9.40;7.20;;;25.00;99.90;;;;;;5057604;28;20934;-80
2023/10/09 13:52:01;;;;;;;13.17;7.40;;;25.10;99.90;;;;;;5056595;28;20424;-80
2023/10/09 13:56:59;;;;;;;12.20;7.97;;;25.00;99.90;;;;;;5055147;28;20464;-82
2023/10/09 13:59:25;;;;;;;9.53;7.03;;;24.90;99.90;;;;;;5058680;28;20408;-81
2023/10/09 14:01:54;;;;;;;11.57;7.23;;;25.00;99.90;;;;;;5058529;28;20607;-81
2023/10/09 14:04:20;;;;;;;10.37;7.67;;;25.10;99.90;;;;;;5057787;28;20198;-81
2023/10/09 14:06:47;;;;;;;11.60;7.00;;;25.10;99.90;;;;;;5041509;28;20436;-81
2023/10/09 14:09:27;;;;;;;13.10;7.80;;;25.10;99.90;;;;;;5039935;28;20421;-81
2023/10/09 14:12:09;;;;;;;10.60;7.63;;;25.20;99.90;;;;;;5057903;28;20435;-81
2023/10/09 14:15:00;;;;;;;13.80;8.50;;;25.20;99.90;;;;;;5058751;28;20452;-81
2023/10/09 14:17:27;;;;;;;11.10;7.93;;;25.30;99.90;;;;;;5058672;28;20897;-80
2023/10/09 14:19:54;;;;;;;13.47;8.67;;;25.10;99.90;;;;;;5040470;28;20424;-81
2023/10/09 14:22:26;;;;;;;12.13;6.90;;;24.80;99.90;;;;;;5055616;28;20510;-80
2023/10/09 14:24:55;;;;;;;15.63;7.90;;;24.70;99.90;;;;;;5040247;28;20460;-81
2023/10/09 14:27:25;;;;;;;11.43;8.77;;;24.80;99.90;;;;;;5057299;28;20474;-80
2023/10/09 14:29:51;;;;;;;29.73;9.63;;;24.90;99.90;;;;;;5057945;28;20436;-81
2023/10/09 14:32:17;;;;;;;13.77;8.07;;;24.70;99.90;;;;;;5040032;28;20429;-81
2023/10/09 14:34:49;;;;;;;55.90;38.10;;;24.60;99.90;;;;;;5058137;28;20486;-82
2023/10/09 14:37:15;;;;;;;23.80;21.30;;;24.40;99.90;;;;;;5039585;28;20206;-81
2023/10/09 14:39:42;;;;;;;14.83;9.57;;;24.20;99.90;;;;;;5054338;28;20524;-80
2023/10/09 14:42:11;;;;;;;19.23;9.73;;;24.10;99.90;;;;;;5050316;28;20452;-80
2023/10/09 14:44:40;;;;;;;15.87;9.20;;;24.10;99.90;;;;;;5056868;28;20440;-81
2023/10/09 14:47:06;;;;;;;15.77;10.13;;;24.00;99.90;;;;;;5039788;28;20433;-80
2023/10/09 14:49:37;;;;;;;13.07;10.60;;;24.10;99.90;;;;;;5057392;28;20421;-80
2023/10/09 14:52:06;;;;;;;12.73;8.70;;;24.10;99.90;;;;;;5058045;28;20420;-80
2023/10/09 14:54:32;;;;;;;17.33;8.10;;;24.10;99.90;;;;;;5054006;28;20444;-80
2023/10/09 14:56:57;;;;;;;12.63;8.67;;;24.20;99.90;;;;;;5056576;28;20476;-79
2023/10/09 14:59:22;;;;;;;11.83;8.47;;;24.20;99.90;;;;;;5039229;28;20690;-79
2023/10/09 15:01:53;;;;;;;11.63;7.97;;;24.20;99.90;;;;;;5057152;28;20188;-80
2023/10/09 15:04:19;;;;;;;11.27;8.73;;;24.10;99.90;;;;;;5057198;28;20629;-80
2023/10/09 15:06:49;;;;;;;12.93;11.33;;;24.00;99.90;;;;;;5057823;28;20416;-80
2023/10/09 15:09:22;;;;;;;12.73;8.93;;;23.90;99.90;;;;;;5038731;28;20436;-80
2023/10/09 15:11:48;;;;;;;17.70;10.10;;;23.70;99.90;;;;;;5056933;28;20412;-80
2023/10/09 15:14:18;;;;;;;13.53;9.10;;;23.60;99.90;;;;;;5053483;28;20467;-80
2023/10/09 15:16:45;;;;;;;14.40;8.70;;;23.50;99.90;;;;;;5039604;28;20464;-80
2023/10/09 15:19:11;;;;;;;10.30;7.87;;;23.40;99.90;;;;;;5057164;28;20426;-79
2023/10/09 15:21:46;;;;;;;13.70;8.20;;;23.40;99.90;;;;;;5056085;28;21402;-80
2023/10/09 15:24:15;;;;;;;11.30;7.70;;;23.40;99.90;;;;;;5056023;28;20251;-79
2023/10/09 15:26:59;;;;;;;10.40;8.30;;;23.30;99.90;;;;;;5055033;28;20825;-79
2023/10/09 15:29:30;;;;;;;13.07;8.03;;;23.10;99.90;;;;;;5051812;28;20460;-80
2023/10/09 15:32:00;;;;;;;15.90;8.40;;;23.00;99.90;;;;;;5055578;28;20411;-79
2023/10/09 15:34:27;;;;;;;11.43;8.60;;;22.90;99.90;;;;;;5037820;28;20436;-79
2023/10/09 15:36:53;;;;;;;18.87;9.30;;;22.80;99.90;;;;;;5037633;28;21000;-80
2023/10/09 15:39:19;;;;;;;13.40;8.00;;;22.60;99.90;;;;;;5056262;28;20459;-79
2023/10/09 15:41:46;;;;;;;12.50;9.20;;;22.40;99.90;;;;;;5045534;28;20968;-79
2023/10/09 15:44:13;;;;;;;16.57;8.23;;;22.30;99.90;;;;;;5034549;28;20436;-79
2023/10/09 15:46:39;;;;;;;14.83;9.40;;;22.20;99.90;;;;;;5052622;28;20513;-79
2023/10/09 15:49:06;;;;;;;13.77;8.10;;;22.10;99.90;;;;;;5044765;28;20536;-79
2023/10/09 15:51:32;;;;;;;15.43;9.60;;;22.00;99.90;;;;;;5049313;28;20432;-79
2023/10/09 15:53:58;;;;;;;16.07;8.67;;;22.00;99.90;;;;;;5049817;28;20464;-79
2023/10/09 15:56:24;;;;;;;11.80;9.20;;;21.90;99.90;;;;;;5044688;28;20197;-78
2023/10/09 15:58:50;;;;;;;10.60;7.87;;;21.80;99.90;;;;;;5050391;28;20608;-79
2023/10/09 16:01:19;;;;;;;13.90;9.00;;;21.80;99.90;;;;;;5051276;28;20849;-79
2023/10/09 16:03:50;;;;;;;12.13;9.30;;;21.70;99.90;;;;;;5048924;28;20487;-79
2023/10/09 16:06:17;;;;;;;15.57;9.53;;;21.70;99.90;;;;;;5052432;28;20269;-79
2023/10/09 16:08:45;;;;;;;12.37;8.80;;;21.70;1.00;;;;;;5050211;28;20451;-79